In Rescue
 
Open Full Screen Window  High Contrast Mode
Wind Gusting 00 knots
09
March 01, 2024 3:43 PM EST
Weather Information
Wind Direction
  160 °
Wind Speed
  09 kt (10 mph)
Wind Gust
  00 kt (0 mph)
Altimeter
30.17 in
Visibility
10 SM
Temperature
08° C
46° F
Dewpoint
-08° C
18° F
Humidity
31%
Sky Condition
Clear
VFR

METAR KOZW 012043Z AUTO 16009KT 10SM CLR 08/M08 A3017 RMK AO2 T00791079

FAA Disclaimer: The data displayed is for advisory purposes only and is not to be used for flight planning or operations.